Time;durP1;ratioP1;P1;durP2;ratioP2;P2;SDS_P1;SDS_P2;PMS_P1;PMS_P2;Temp;Humidity;BMP_temperature;BMP_pressure;BME280_temperature;BME280_humidity;BME280_pressure;Samples;Min_cycle;Max_cycle;Signal;HPM_P1;HPM_P2
2022/01/06 00:01:22;;;;;;;4.01;0.96;;;;;;;3.67;81.56;99211.91;2005920;77;22239;-72
2022/01/06 00:04:25;;;;;;;9.80;1.84;;;;;;;3.70;81.36;99224.78;2006878;80;20353;-72
2022/01/06 00:07:29;;;;;;;4.68;1.35;;;;;;;3.69;81.19;99216.22;2007722;80;20378;-72
2022/01/06 00:10:32;;;;;;;5.19;1.10;;;;;;;3.72;81.10;99217.97;2007562;80;21252;-72
2022/01/06 00:13:47;;;;;;;6.66;1.40;;;;;;;3.72;81.02;99230.81;2007059;80;20349;-72
2022/01/06 00:26:23;;;;;;;6.30;1.10;;;;;;;3.70;81.07;99224.78;2001463;81;20389;-72
2022/01/06 00:29:26;;;;;;;7.35;1.05;;;;;;;3.68;80.98;99232.47;2001175;81;20337;-73
2022/01/06 00:35:49;;;;;;;6.99;1.09;;;;;;;3.67;81.53;99227.31;2013159;70;20358;-73
2022/01/06 00:38:51;;;;;;;9.35;1.40;;;;;;;3.67;81.06;99227.31;2011518;80;20721;-72
2022/01/06 00:41:59;;;;;;;7.34;1.49;;;;;;;3.67;81.21;99220.47;2011984;80;20326;-73
2022/01/06 00:45:02;;;;;;;5.56;1.02;;;;;;;3.70;81.51;99224.78;2010475;80;20828;-73
2022/01/06 00:48:07;;;;;;;5.70;0.85;;;;;;;3.70;81.89;99224.78;2010986;77;21413;-73
2022/01/06 00:51:10;;;;;;;7.44;0.99;;;;;;;3.71;81.79;99229.09;2011636;80;20827;-73
2022/01/06 00:54:13;;;;;;;4.49;1.16;;;;;;;3.68;81.50;99235.03;2011537;80;20335;-73
2022/01/06 00:57:16;;;;;;;4.21;1.11;;;;;;;3.68;81.42;99235.03;2011195;80;20883;-72
2022/01/06 01:00:18;;;;;;;5.81;1.23;;;;;;;3.70;81.66;99232.50;2010829;77;21652;-73
2022/01/06 01:03:22;;;;;;;6.76;1.20;;;;;;;3.70;81.60;99233.34;2011773;80;21023;-72
2022/01/06 01:06:25;;;;;;;6.06;1.17;;;;;;;3.70;81.54;99246.19;2008600;80;20348;-73
2022/01/06 01:09:27;;;;;;;4.35;0.94;;;;;;;3.71;81.57;99241.94;2009990;80;20322;-73
2022/01/06 01:12:30;;;;;;;3.49;1.05;;;;;;;3.72;81.57;99241.94;2011173;80;20358;-73
2022/01/06 01:15:34;;;;;;;3.90;1.04;;;;;;;3.74;81.61;99239.41;2009483;77;20811;-72
2022/01/06 01:18:39;;;;;;;3.90;1.15;;;;;;;3.71;81.48;99237.66;2010903;80;21045;-72
2022/01/06 01:21:42;;;;;;;7.01;1.59;;;;;;;3.72;81.60;99239.38;2009988;80;20353;-73
2022/01/06 01:24:44;;;;;;;5.75;1.27;;;;;;;3.74;81.72;99242.84;2010812;80;20322;-73
2022/01/06 01:27:47;;;;;;;5.29;1.71;;;;;;;3.77;81.93;99244.59;2011348;80;20330;-73
2022/01/06 01:31:18;;;;;;;5.39;1.16;;;;;;;3.74;81.79;99235.16;2011495;77;20417;-72
2022/01/06 01:34:25;;;;;;;6.81;1.50;;;;;;;3.76;81.83;99254.00;2016187;80;20369;-72
2022/01/06 01:37:30;;;;;;;7.91;1.31;;;;;;;3.74;81.83;99249.69;2016385;80;20337;-73
2022/01/06 01:40:32;;;;;;;6.88;1.10;;;;;;;3.73;81.96;99256.53;2016845;80;20326;-73
2022/01/06 01:45:34;;;;;;;5.56;1.09;;;;;;;3.78;81.93;99254.94;2064105;76;20754;-73
2022/01/06 01:48:41;;;;;;;6.30;1.15;;;;;;;3.73;81.90;99266.78;2046561;79;20476;-73
2022/01/06 01:51:44;;;;;;;4.63;1.14;;;;;;;3.73;81.77;99271.06;2045826;79;20641;-73
2022/01/06 01:54:47;;;;;;;5.94;1.30;;;;;;;3.71;81.70;99276.16;2046589;79;20371;-73
2022/01/06 01:57:51;;;;;;;6.46;1.44;;;;;;;3.71;81.83;99280.44;2046619;79;20358;-73
2022/01/06 02:00:54;;;;;;;3.94;1.04;;;;;;;3.71;81.85;99275.31;2045926;76;26090;-73
2022/01/06 02:03:57;;;;;;;8.89;1.74;;;;;;;3.72;82.12;99277.91;2052131;78;21308;-73
2022/01/06 02:06:59;;;;;;;6.30;1.65;;;;;;;3.72;82.22;99282.16;2051345;78;20358;-72
2022/01/06 02:10:07;;;;;;;6.05;1.27;;;;;;;3.69;81.99;99285.53;2050984;78;20371;-73
2022/01/06 02:13:09;;;;;;;5.32;1.06;;;;;;;3.70;82.06;99287.28;2051838;78;20333;-73
2022/01/06 02:16:12;;;;;;;6.46;1.27;;;;;;;3.70;82.28;99296.69;2047666;78;20347;-73
2022/01/06 02:19:15;;;;;;;5.69;1.09;;;;;;;3.69;82.34;99288.09;2051018;76;20910;-73
2022/01/06 02:22:18;;;;;;;6.60;1.21;;;;;;;3.70;82.57;99288.97;2050752;78;20377;-73
2022/01/06 02:25:27;;;;;;;6.34;1.29;;;;;;;3.68;82.51;99290.66;2051791;78;20351;-73
2022/01/06 02:28:30;;;;;;;8.10;1.46;;;;;;;3.72;82.95;99293.31;2052087;78;21427;-73
2022/01/06 02:31:41;;;;;;;6.63;1.00;;;;;;;3.72;83.07;99293.31;2047295;76;27376;-73
2022/01/06 02:34:44;;;;;;;4.49;1.27;;;;;;;3.72;82.81;99289.88;2045808;79;20445;-73
2022/01/06 02:37:47;;;;;;;2.94;1.05;;;;;;;3.73;82.84;99291.59;2045182;79;20817;-72
2022/01/06 02:40:50;;;;;;;7.81;1.26;;;;;;;3.74;82.81;99291.63;2045955;79;21150;-73
2022/01/06 02:43:55;;;;;;;4.64;1.38;;;;;;;3.74;82.67;99295.91;2046298;79;20353;-73
2022/01/06 02:47:02;;;;;;;8.29;1.54;;;;;;;3.74;82.49;99301.91;2044297;76;24366;-73
2022/01/06 02:50:07;;;;;;;6.55;1.49;;;;;;;3.77;82.69;99308.81;2045233;79;20652;-73
2022/01/06 02:53:11;;;;;;;6.00;1.15;;;;;;;3.77;83.06;99301.09;2046563;79;20882;-73
2022/01/06 02:56:14;;;;;;;8.27;1.74;;;;;;;3.77;83.11;99303.66;2044168;79;20897;-73
2022/01/06 02:59:16;;;;;;;3.67;1.30;;;;;;;3.76;83.17;99307.94;2042386;79;20443;-72
2022/01/06 03:02:19;;;;;;;4.85;1.71;;;;;;;3.75;83.24;99303.63;2042276;76;20331;-73
2022/01/06 03:05:22;;;;;;;3.56;0.99;;;;;;;3.75;83.26;99307.91;2047087;79;21222;-73
2022/01/06 03:08:26;;;;;;;8.49;1.40;;;;;;;3.77;83.39;99319.06;2044243;79;20396;-73
2022/01/06 03:11:29;;;;;;;5.51;1.48;;;;;;;3.75;83.28;99324.19;2044177;79;20342;-73
2022/01/06 03:14:32;;;;;;;6.39;1.90;;;;;;;3.74;83.07;99326.72;2043909;79;20391;-73
2022/01/06 03:17:36;;;;;;;6.68;1.30;;;;;;;3.73;83.26;99319.84;2047383;79;21271;-73
2022/01/06 03:20:39;;;;;;;6.07;1.31;;;;;;;3.72;83.23;99328.38;2048908;79;20332;-73
2022/01/06 03:23:41;;;;;;;6.25;1.30;;;;;;;3.71;83.37;99339.50;2049411;79;20342;-72
2022/01/06 03:26:44;;;;;;;7.49;1.19;;;;;;;3.67;83.58;99338.56;2048508;79;20403;-73
2022/01/06 03:29:49;;;;;;;8.80;1.40;;;;;;;3.66;83.88;99338.53;2048720;79;20451;-72
2022/01/06 03:32:52;;;;;;;5.26;1.40;;;;;;;3.59;83.89;99343.53;2046856;76;50830;-72
2022/01/06 03:35:54;;;;;;;6.39;1.26;;;;;;;3.58;84.38;99346.03;2049652;79;20368;-73
2022/01/06 03:38:57;;;;;;;4.18;1.24;;;;;;;3.57;84.53;99347.75;2048108;79;20401;-72
2022/01/06 03:42:00;;;;;;;7.95;1.45;;;;;;;3.57;84.59;99344.31;2048606;79;20339;-73
2022/01/06 03:45:06;;;;;;;4.24;1.33;;;;;;;3.56;84.47;99353.72;2048359;79;20389;-73
2022/01/06 03:48:09;;;;;;;8.49;1.31;;;;;;;3.53;84.42;99353.66;2044171;76;20376;-73
2022/01/06 03:51:12;;;;;;;10.43;1.40;;;;;;;3.50;84.33;99351.03;2043275;79;20388;-73
2022/01/06 03:54:15;;;;;;;5.40;1.38;;;;;;;3.44;84.19;99355.16;2043932;79;20312;-73
2022/01/06 03:57:18;;;;;;;4.59;1.21;;;;;;;3.38;84.42;99361.00;2043780;79;20320;-72
2022/01/06 04:00:22;;;;;;;4.44;0.99;;;;;;;3.26;84.38;99366.72;2042068;77;20410;-72
2022/01/06 04:03:25;;;;;;;4.61;1.09;;;;;;;3.19;84.43;99364.81;2043874;79;20322;-72
2022/01/06 04:06:27;;;;;;;5.69;1.40;;;;;;;3.15;84.79;99369.84;2047359;79;20366;-72
2022/01/06 04:09:30;;;;;;;8.96;1.40;;;;;;;3.11;85.06;99368.03;2047719;79;20318;-72
2022/01/06 04:12:37;;;;;;;5.71;1.40;;;;;;;3.06;85.13;99370.50;2048360;79;20418;-72
2022/01/06 04:15:39;;;;;;;8.13;1.21;;;;;;;3.08;85.63;99380.78;2045283;79;25105;-72
2022/01/06 04:18:42;;;;;;;8.70;0.90;;;;;;;3.03;85.89;99376.38;2047853;79;20330;-72
2022/01/06 04:21:45;;;;;;;6.38;1.13;;;;;;;2.96;85.96;99382.19;2047711;79;21097;-73
2022/01/06 04:24:48;;;;;;;3.01;1.09;;;;;;;2.93;86.07;99378.69;2047538;79;20318;-73
2022/01/06 04:27:50;;;;;;;4.04;1.19;;;;;;;2.87;86.20;99384.53;2047446;79;20933;-72
2022/01/06 04:30:53;;;;;;;5.26;1.26;;;;;;;2.78;86.25;99391.13;2045564;76;24041;-72
2022/01/06 04:33:55;;;;;;;6.28;1.33;;;;;;;2.75;86.56;99393.59;2047602;79;20314;-72
2022/01/06 04:36:59;;;;;;;5.80;1.08;;;;;;;2.71;86.77;99398.66;2047857;79;20378;-72
2022/01/06 04:40:06;;;;;;;5.71;1.16;;;;;;;2.69;87.02;99394.28;2049441;79;20421;-73
2022/01/06 04:43:09;;;;;;;5.43;1.20;;;;;;;2.68;87.15;99395.13;2046381;79;20316;-72
2022/01/06 04:46:12;;;;;;;3.19;1.10;;;;;;;2.60;87.17;99412.00;2036506;76;26451;-72
2022/01/06 04:49:14;;;;;;;3.40;1.04;;;;;;;2.51;87.04;99409.16;2038251;79;20364;-72
2022/01/06 04:52:17;;;;;;;5.25;1.31;;;;;;;2.42;87.02;99410.66;2038554;79;20313;-72
2022/01/06 04:55:20;;;;;;;4.89;1.31;;;;;;;2.35;87.14;99416.44;2037860;79;20417;-73
2022/01/06 04:58:23;;;;;;;6.14;1.13;;;;;;;2.21;87.26;99420.28;2038208;79;20333;-72
2022/01/06 05:01:25;;;;;;;3.53;1.31;;;;;;;2.12;87.23;99422.56;2038947;76;22309;-72
2022/01/06 05:04:28;;;;;;;4.74;1.30;;;;;;;2.01;87.12;99434.22;2043497;79;20836;-72
2022/01/06 05:07:32;;;;;;;4.61;1.20;;;;;;;1.91;87.32;99437.28;2043842;79;20343;-72
2022/01/06 05:10:34;;;;;;;3.14;1.00;;;;;;;1.86;87.59;99441.41;2043632;79;20862;-72
2022/01/06 05:13:38;;;;;;;5.15;1.14;;;;;;;1.80;87.90;99447.22;2043488;79;20366;-72
2022/01/06 05:16:40;;;;;;;3.76;1.21;;;;;;;1.76;88.22;99442.81;2042548;77;22897;-73
2022/01/06 05:19:43;;;;;;;6.53;0.94;;;;;;;1.70;88.57;99447.75;2043691;79;20342;-72
2022/01/06 05:22:46;;;;;;;2.24;1.08;;;;;;;1.69;89.20;99451.13;2042993;79;20426;-72
2022/01/06 05:25:48;;;;;;;6.20;0.95;;;;;;;1.65;89.43;99460.41;2043346;79;20335;-72
2022/01/06 05:28:51;;;;;;;6.51;1.16;;;;;;;1.69;89.80;99461.34;2044147;79;20990;-72
2022/01/06 05:31:54;;;;;;;4.59;1.16;;;;;;;1.71;90.20;99460.59;2041931;76;21184;-72
2022/01/06 05:34:56;;;;;;;4.74;1.34;;;;;;;1.75;90.35;99474.34;2043496;79;20359;-72
2022/01/06 05:37:59;;;;;;;3.10;1.14;;;;;;;1.74;90.43;99481.16;2043612;79;20403;-73
2022/01/06 05:41:01;;;;;;;6.60;1.23;;;;;;;1.78;90.81;99474.44;2043871;79;20362;-73
2022/01/06 05:44:05;;;;;;;5.90;1.25;;;;;;;1.83;91.02;99485.72;2046207;79;20354;-73
2022/01/06 05:47:07;;;;;;;7.38;2.20;;;;;;;1.87;91.16;99482.41;2044259;77;23339;-72
2022/01/06 05:50:10;;;;;;;8.79;1.30;;;;;;;1.91;91.22;99478.25;2043048;79;20380;-72
2022/01/06 05:53:13;;;;;;;6.26;1.36;;;;;;;1.94;91.58;99484.34;2043653;79;20367;-72
2022/01/06 05:56:16;;;;;;;3.63;1.15;;;;;;;2.02;91.74;99490.59;2043363;79;20329;-72
2022/01/06 05:59:19;;;;;;;4.01;1.15;;;;;;;2.09;91.82;99489.06;2043296;79;20394;-72
2022/01/06 06:02:21;;;;;;;4.84;1.21;;;;;;;2.13;91.92;99494.31;2042003;76;21300;-73
2022/01/06 06:05:25;;;;;;;4.16;1.70;;;;;;;2.17;91.92;99495.31;2043338;79;20351;-73
2022/01/06 06:08:28;;;;;;;4.50;1.27;;;;;;;2.17;91.80;99497.88;2044039;79;20327;-72
2022/01/06 06:11:30;;;;;;;6.26;1.20;;;;;;;2.13;91.55;99501.13;2043178;79;20339;-72
2022/01/06 06:14:33;;;;;;;4.47;1.20;;;;;;;2.06;91.26;99497.53;2043338;79;20844;-73
2022/01/06 06:17:36;;;;;;;4.38;1.29;;;;;;;1.99;91.07;99497.31;2041944;76;21545;-72
2022/01/06 06:20:40;;;;;;;4.63;1.19;;;;;;;1.90;90.92;99500.44;2043115;79;20416;-73
2022/01/06 06:23:43;;;;;;;4.71;1.11;;;;;;;1.78;90.59;99497.47;2042980;79;20339;-73
2022/01/06 06:26:45;;;;;;;5.80;1.30;;;;;;;1.68;90.47;99508.25;2043087;79;20432;-72
2022/01/06 06:29:49;;;;;;;6.10;1.58;;;;;;;1.58;90.31;99509.63;2042988;79;20343;-72
2022/01/06 06:32:52;;;;;;;3.16;1.08;;;;;;;1.48;90.16;99503.34;2043022;78;20350;-72
2022/01/06 06:35:54;;;;;;;6.16;1.17;;;;;;;1.35;90.09;99510.53;2043925;79;20409;-72
2022/01/06 06:38:57;;;;;;;6.93;1.45;;;;;;;1.26;90.51;99516.25;2044449;79;21209;-73
2022/01/06 06:41:59;;;;;;;5.03;2.21;;;;;;;1.20;90.74;99521.13;2044623;79;20315;-73
2022/01/06 06:45:02;;;;;;;3.05;1.11;;;;;;;1.17;91.08;99529.56;2043386;79;20331;-72
2022/01/06 06:48:05;;;;;;;5.89;1.70;;;;;;;1.06;91.10;99530.84;2044056;76;37173;-73
2022/01/06 06:51:08;;;;;;;6.55;1.23;;;;;;;1.01;91.23;99531.50;2049402;79;20314;-73
2022/01/06 06:54:13;;;;;;;3.76;1.06;;;;;;;0.96;91.44;99523.69;2049053;79;20312;-72
2022/01/06 06:57:16;;;;;;;7.69;2.20;;;;;;;0.91;91.47;99535.44;2049987;79;20294;-72
2022/01/06 07:00:18;;;;;;;19.36;5.41;;;;;;;0.87;91.49;99542.09;2047285;76;20426;-73
2022/01/06 07:03:21;;;;;;;35.33;9.94;;;;;;;0.74;90.93;99542.50;2049329;79;21024;-72
2022/01/06 07:06:24;;;;;;;16.15;6.05;;;;;;;0.67;91.03;99537.94;2048885;79;20303;-72
2022/01/06 07:09:26;;;;;;;14.82;4.43;;;;;;;0.58;90.98;99541.06;2049754;79;20768;-72
2022/01/06 07:12:30;;;;;;;13.59;4.56;;;;;;;0.54;91.31;99551.97;2049245;79;20168;-73
2022/01/06 07:15:34;;;;;;;8.45;3.22;;;;;;;0.51;91.43;99551.84;2047240;76;22292;-72
2022/01/06 07:18:36;;;;;;;9.07;2.19;;;;;;;0.48;91.55;99556.84;2047700;79;20358;-73
2022/01/06 07:21:39;;;;;;;6.97;2.13;;;;;;;0.44;91.58;99559.22;2047459;79;20215;-73
2022/01/06 07:24:41;;;;;;;4.41;1.53;;;;;;;0.41;91.67;99567.63;2047680;79;20168;-73
2022/01/06 07:27:48;;;;;;;6.48;1.59;;;;;;;0.37;91.60;99564.91;2047300;79;20994;-72
2022/01/06 07:30:51;;;;;;;6.91;1.46;;;;;;;0.34;91.73;99573.31;2046179;76;22032;-73
2022/01/06 07:33:53;;;;;;;3.88;1.87;;;;;;;0.28;91.57;99584.16;2047674;79;20175;-72
2022/01/06 07:36:56;;;;;;;8.34;2.92;;;;;;;0.21;91.73;99589.84;2048423;79;21297;-73
2022/01/06 07:39:59;;;;;;;8.41;1.91;;;;;;;0.21;92.08;99600.06;2048067;79;20713;-73
2022/01/06 07:43:01;;;;;;;5.32;1.89;;;;;;;0.18;91.99;99612.72;2048180;79;20179;-75
2022/01/06 07:46:04;;;;;;;7.64;1.37;;;;;;;0.15;92.00;99612.56;2045878;76;22865;-72
2022/01/06 07:49:07;;;;;;;9.07;1.34;;;;;;;0.16;92.12;99613.44;2047517;79;20425;-72
2022/01/06 07:52:10;;;;;;;5.97;1.92;;;;;;;0.19;92.47;99621.25;2047700;79;20334;-73
2022/01/06 07:55:16;;;;;;;8.91;1.66;;;;;;;0.22;92.68;99617.13;2046456;79;20229;-72
2022/01/06 07:58:18;;;;;;;5.61;2.14;;;;;;;0.25;92.98;99621.47;2046541;79;20195;-73
2022/01/06 08:01:21;;;;;;;5.47;1.38;;;;;;;0.27;93.15;99623.28;2044918;76;20956;-73
2022/01/06 08:04:24;;;;;;;5.54;2.00;;;;;;;0.30;93.38;99631.06;2047375;79;20309;-73
2022/01/06 08:07:27;;;;;;;9.43;1.64;;;;;;;0.32;93.35;99638.78;2046919;79;20243;-72
2022/01/06 08:10:30;;;;;;;5.89;1.83;;;;;;;0.33;93.25;99637.09;2047268;79;20187;-71
2022/01/06 08:13:33;;;;;;;4.97;1.84;;;;;;;0.37;93.32;99638.97;2045720;79;20172;-72
2022/01/06 08:16:35;;;;;;;6.84;1.67;;;;;;;0.42;93.56;99640.91;2044424;76;21788;-72
2022/01/06 08:19:38;;;;;;;8.96;1.74;;;;;;;0.48;93.77;99643.69;2046795;79;20246;-72
2022/01/06 08:22:41;;;;;;;4.11;1.71;;;;;;;0.59;94.00;99644.13;2047263;79;20334;-72
2022/01/06 08:25:44;;;;;;;7.54;2.00;;;;;;;0.76;94.62;99643.09;2046649;79;20288;-72
2022/01/06 08:28:47;;;;;;;7.07;2.04;;;;;;;0.98;94.91;99641.34;2044858;79;20326;-72
2022/01/06 08:31:50;;;;;;;6.79;2.85;;;;;;;1.19;95.07;99642.13;2044474;76;47259;-73
2022/01/06 08:34:53;;;;;;;7.72;2.95;;;;;;;1.38;95.13;99641.09;2046397;79;20339;-72
2022/01/06 08:37:56;;;;;;;5.93;2.70;;;;;;;1.48;94.21;99641.50;2045688;79;20916;-72
2022/01/06 08:40:58;;;;;;;9.57;3.20;;;;;;;1.60;93.80;99641.03;2045625;79;20391;-72
2022/01/06 08:44:01;;;;;;;5.16;2.78;;;;;;;1.82;93.27;99642.69;2045309;79;20303;-72
2022/01/06 08:47:03;;;;;;;5.39;2.34;;;;;;;2.07;92.70;99647.81;2044087;76;21092;-72
2022/01/06 08:50:07;;;;;;;11.71;3.14;;;;;;;2.37;91.77;99647.06;2046640;79;20361;-72
2022/01/06 08:53:09;;;;;;;9.44;2.67;;;;;;;2.67;91.01;99649.72;2046442;79;20342;-73
2022/01/06 08:56:12;;;;;;;9.05;3.31;;;;;;;2.99;90.36;99649.00;2046730;79;20338;-72
2022/01/06 08:59:15;;;;;;;10.60;2.99;;;;;;;3.34;89.63;99650.03;2046125;79;20347;-72
2022/01/06 09:02:17;;;;;;;9.49;2.70;;;;;;;3.57;88.45;99647.22;2045125;76;20798;-72
2022/01/06 09:05:20;;;;;;;6.56;2.45;;;;;;;3.79;87.27;99649.56;2046241;79;20952;-73
2022/01/06 09:08:23;;;;;;;6.31;2.40;;;;;;;4.04;86.26;99645.94;2047387;78;20314;-73
2022/01/06 09:11:25;;;;;;;9.26;2.55;;;;;;;4.31;85.14;99656.06;2046176;79;20319;-72
2022/01/06 09:14:28;;;;;;;13.34;3.35;;;;;;;4.49;84.36;99658.22;2046050;79;20306;-72
2022/01/06 09:17:35;;;;;;;11.77;3.89;;;;;;;4.73;84.15;99660.47;2044645;77;33440;-72
2022/01/06 09:20:38;;;;;;;6.56;2.79;;;;;;;4.96;83.32;99664.44;2046492;79;20330;-72
2022/01/06 09:23:40;;;;;;;9.41;2.25;;;;;;;5.03;81.72;99662.88;2046882;79;20948;-72
2022/01/06 09:26:43;;;;;;;4.57;1.96;;;;;;;5.15;80.77;99669.16;2046533;79;20307;-72
2022/01/06 09:29:45;;;;;;;10.89;2.36;;;;;;;5.14;79.73;99669.13;2047108;79;20306;-73
2022/01/06 09:32:48;;;;;;;9.05;2.11;;;;;;;5.00;79.14;99671.38;2043900;76;85140;-72
2022/01/06 09:35:53;;;;;;;7.32;1.75;;;;;;;4.85;78.94;99676.19;2046918;79;20363;-72
2022/01/06 09:38:57;;;;;;;9.82;2.22;;;;;;;4.70;79.28;99681.84;2046669;79;20318;-73
2022/01/06 09:41:59;;;;;;;8.29;2.51;;;;;;;4.58;79.88;99684.13;2044934;79;20374;-72
2022/01/06 09:45:04;;;;;;;9.66;2.31;;;;;;;4.51;80.59;99687.38;2044288;79;20318;-73
2022/01/06 09:48:08;;;;;;;9.19;2.21;;;;;;;4.42;81.01;99689.72;2044796;76;22512;-72
2022/01/06 09:51:10;;;;;;;11.10;2.29;;;;;;;4.36;81.59;99694.72;2048364;78;20449;-72
2022/01/06 09:54:13;;;;;;;12.07;3.29;;;;;;;4.36;81.78;99702.44;2045285;79;20887;-72
2022/01/06 09:57:16;;;;;;;9.23;2.67;;;;;;;4.36;81.89;99705.00;2045795;79;20809;-71
2022/01/06 10:00:19;;;;;;;7.56;1.81;;;;;;;4.37;81.98;99705.03;2043576;76;23571;-72
2022/01/06 10:03:37;;;;;;;10.35;2.54;;;;;;;4.40;81.83;99702.53;2045849;79;20346;-72
2022/01/06 10:06:39;;;;;;;7.74;2.14;;;;;;;4.42;82.02;99703.44;2046057;79;21022;-72
2022/01/06 10:09:42;;;;;;;8.14;2.05;;;;;;;4.45;82.05;99705.22;2047044;79;20332;-72
2022/01/06 10:12:54;;;;;;;7.88;1.85;;;;;;;4.59;82.16;99703.00;2046618;79;20332;-72
2022/01/06 10:15:57;;;;;;;15.31;2.61;;;;;;;4.82;81.96;99702.69;2044183;76;20776;-71
2022/01/06 10:19:04;;;;;;;6.50;1.99;;;;;;;4.98;81.18;99695.34;2045591;79;20337;-72
2022/01/06 10:22:13;;;;;;;10.56;2.09;;;;;;;5.10;80.63;99698.19;2045989;79;20728;-72
2022/01/06 10:25:18;;;;;;;9.38;2.38;;;;;;;5.09;79.76;99693.88;2046533;79;20333;-72
2022/01/06 10:28:23;;;;;;;6.70;2.08;;;;;;;5.03;79.45;99691.19;2046646;79;20152;-72
2022/01/06 10:31:29;;;;;;;8.09;2.39;;;;;;;4.97;79.18;99694.47;2044683;76;49272;-73
2022/01/06 10:34:34;;;;;;;6.69;1.81;;;;;;;4.93;79.56;99695.25;2045855;79;20311;-72
2022/01/06 10:37:46;;;;;;;6.46;1.61;;;;;;;4.84;79.57;99693.31;2045968;79;20335;-72
2022/01/06 10:40:48;;;;;;;5.88;1.88;;;;;;;4.75;79.75;99695.69;2045812;79;20390;-72
2022/01/06 10:44:02;;;;;;;5.43;1.85;;;;;;;4.67;79.86;99704.03;2046277;79;20318;-72
2022/01/06 10:47:05;;;;;;;4.85;1.34;;;;;;;4.58;79.88;99701.25;2044189;76;48089;-72
2022/01/06 10:50:11;;;;;;;8.89;1.76;;;;;;;4.50;79.91;99698.50;2045710;79;20383;-72
2022/01/06 10:53:14;;;;;;;4.76;1.38;;;;;;;4.45;80.58;99707.78;2045785;79;20322;-72
2022/01/06 10:56:18;;;;;;;4.15;1.95;;;;;;;4.39;80.60;99705.06;2045610;79;20310;-72
2022/01/06 10:59:29;;;;;;;5.40;1.70;;;;;;;4.33;80.72;99694.66;2045534;79;20405;-72
2022/01/06 11:02:32;;;;;;;6.04;1.70;;;;;;;4.28;80.41;99691.94;2044616;76;25229;-72
2022/01/06 11:05:37;;;;;;;4.97;2.05;;;;;;;4.25;80.73;99699.56;2045848;79;20438;-72
2022/01/06 11:08:41;;;;;;;5.43;1.66;;;;;;;4.30;80.70;99700.56;2046039;79;20344;-72
2022/01/06 11:15:04;;;;;;;6.34;1.86;;;;;;;4.41;80.63;99691.44;2045187;79;20454;-73
2022/01/06 11:18:07;;;;;;;8.20;1.75;;;;;;;4.43;79.83;99691.47;2046541;77;22240;-73
2022/01/06 11:21:15;;;;;;;8.75;2.24;;;;;;;4.54;80.21;99685.75;2047065;79;20367;-73
2022/01/06 11:24:24;;;;;;;5.21;1.75;;;;;;;4.71;79.84;99685.28;2046196;79;20383;-73
2022/01/06 11:27:35;;;;;;;5.36;1.90;;;;;;;4.91;79.85;99688.34;2046174;79;20372;-73
2022/01/06 11:30:44;;;;;;;6.10;1.65;;;;;;;5.12;79.21;99688.81;2045435;76;22971;-73
2022/01/06 11:33:49;;;;;;;8.84;2.46;;;;;;;5.29;78.50;99678.88;2046669;79;20351;-73
2022/01/06 11:36:54;;;;;;;7.25;2.31;;;;;;;5.41;77.28;99684.28;2045891;79;20271;-73
2022/01/06 11:40:03;;;;;;;8.96;1.89;;;;;;;5.60;77.42;99695.84;2046252;79;20335;-72
2022/01/06 11:43:06;;;;;;;7.34;1.84;;;;;;;5.78;77.22;99685.03;2046310;79;20342;-72
2022/01/06 11:46:09;;;;;;;8.98;1.73;;;;;;;5.93;76.20;99687.94;2044761;76;21297;-72
2022/01/06 11:49:12;;;;;;;6.44;1.71;;;;;;;6.06;75.58;99688.16;2045834;79;20324;-71
2022/01/06 11:52:16;;;;;;;6.14;1.76;;;;;;;6.06;74.55;99685.59;2046921;79;20330;-72
2022/01/06 11:55:21;;;;;;;10.11;2.05;;;;;;;6.10;74.29;99676.19;2047631;79;20328;-72
2022/01/06 11:58:24;;;;;;;6.46;2.00;;;;;;;6.03;73.61;99685.53;2046473;79;20343;-71
2022/01/06 12:01:27;;;;;;;6.09;1.73;;;;;;;6.03;73.96;99693.28;2045502;76;23464;-72
2022/01/06 12:04:30;;;;;;;7.97;1.92;;;;;;;5.99;73.86;99691.50;2046351;79;21178;-71
2022/01/06 12:07:33;;;;;;;9.70;2.19;;;;;;;6.02;73.84;99691.53;2046936;79;21405;-72
2022/01/06 12:10:44;;;;;;;7.07;2.04;;;;;;;5.95;73.89;99687.13;2046589;79;20331;-71
2022/01/06 12:13:47;;;;;;;7.21;1.96;;;;;;;5.89;73.91;99696.41;2046949;79;20344;-71
2022/01/06 12:16:50;;;;;;;8.29;2.10;;;;;;;5.78;73.72;99696.22;2045010;76;20314;-71
2022/01/06 12:19:53;;;;;;;5.57;1.85;;;;;;;5.72;74.49;99696.06;2046039;79;21323;-71
2022/01/06 12:22:56;;;;;;;6.54;2.09;;;;;;;5.58;74.19;99688.09;2046724;79;20924;-71
2022/01/06 12:26:03;;;;;;;9.02;2.04;;;;;;;5.49;74.70;99700.75;2045846;79;20294;-71
2022/01/06 12:29:19;;;;;;;8.31;1.88;;;;;;;5.40;75.39;99685.13;2045498;79;20306;-72
2022/01/06 12:32:22;;;;;;;6.06;1.63;;;;;;;5.28;75.74;99688.31;2043964;77;25311;-71
2022/01/06 12:35:48;;;;;;;11.60;1.84;;;;;;;5.18;76.18;99688.06;2046363;79;20379;-72
2022/01/06 12:38:51;;;;;;;7.51;1.84;;;;;;;5.04;75.70;99685.22;2046709;79;20318;-71
2022/01/06 12:41:54;;;;;;;7.04;1.94;;;;;;;4.94;75.15;99678.97;2046204;79;20320;-72
2022/01/06 12:45:05;;;;;;;9.01;2.45;;;;;;;4.97;75.41;99680.75;2047382;79;20340;-72
2022/01/06 12:48:08;;;;;;;6.80;3.11;;;;;;;4.95;75.86;99683.28;2045506;76;22434;-71
2022/01/06 12:51:13;;;;;;;5.79;1.96;;;;;;;4.96;75.90;99682.44;2046540;79;21301;-71
2022/01/06 12:54:22;;;;;;;7.34;2.22;;;;;;;5.03;76.23;99675.75;2045848;79;20343;-72
2022/01/06 12:57:25;;;;;;;8.32;1.81;;;;;;;5.06;76.18;99678.38;2046765;79;20382;-71
2022/01/06 13:00:27;;;;;;;7.81;1.73;;;;;;;5.06;75.97;99684.41;2044660;76;23045;-71
2022/01/06 13:03:33;;;;;;;5.68;1.79;;;;;;;5.10;75.62;99681.06;2045936;79;21362;-71
2022/01/06 13:06:38;;;;;;;7.88;1.63;;;;;;;5.16;75.95;99681.19;2046955;79;20310;-71
2022/01/06 13:09:41;;;;;;;5.15;1.61;;;;;;;5.21;75.85;99673.59;2042985;79;20298;-71
2022/01/06 13:12:44;;;;;;;8.57;1.85;;;;;;;5.24;75.10;99680.50;2046925;79;20318;-71
2022/01/06 13:15:46;;;;;;;6.91;1.58;;;;;;;5.28;74.86;99680.59;2044511;76;22942;-71
2022/01/06 13:18:57;;;;;;;8.55;1.83;;;;;;;5.32;74.66;99672.09;2047150;79;20314;-71
2022/01/06 13:22:04;;;;;;;8.69;2.14;;;;;;;5.32;74.18;99669.50;2046097;79;20379;-72
2022/01/06 13:25:11;;;;;;;6.65;1.40;;;;;;;5.33;73.63;99670.38;2045464;79;20394;-71
2022/01/06 13:28:15;;;;;;;6.20;1.94;;;;;;;5.30;73.37;99676.34;2045869;79;20920;-71
2022/01/06 13:31:18;;;;;;;9.57;1.48;;;;;;;5.31;73.30;99670.34;2043187;76;22126;-71
2022/01/06 13:34:21;;;;;;;6.64;1.55;;;;;;;5.31;72.67;99672.06;2045711;79;20336;-72
2022/01/06 13:37:28;;;;;;;8.01;1.69;;;;;;;5.30;72.86;99662.59;2045762;79;20330;-71
2022/01/06 13:40:32;;;;;;;5.60;1.20;;;;;;;5.30;72.01;99660.88;2045421;79;20326;-71
2022/01/06 13:43:38;;;;;;;5.71;1.19;;;;;;;5.28;71.39;99660.00;2045407;79;20412;-70
2022/01/06 13:46:51;;;;;;;5.81;1.16;;;;;;;5.24;71.01;99663.34;2042977;76;21260;-70
2022/01/06 13:53:46;;;;;;;6.22;1.73;;;;;;;5.15;70.98;99655.41;2044990;79;20326;-70
2022/01/06 13:56:49;;;;;;;6.60;1.02;;;;;;;5.08;70.85;99653.56;2044810;79;20380;-71
2022/01/06 13:59:53;;;;;;;5.50;1.39;;;;;;;5.04;71.02;99644.03;2045170;79;20408;-72
2022/01/06 14:02:56;;;;;;;13.02;2.74;;;;;;;5.00;71.06;99647.34;2041655;76;20318;-72
2022/01/06 14:06:05;;;;;;;3.92;1.26;;;;;;;4.91;71.44;99648.03;2044448;79;20326;-72
2022/01/06 14:09:07;;;;;;;5.44;1.26;;;;;;;4.79;71.84;99651.19;2045333;79;20387;-72
2022/01/06 14:12:11;;;;;;;6.35;1.17;;;;;;;4.73;72.44;99650.19;2047730;78;20196;-72
2022/01/06 14:15:14;;;;;;;7.70;1.44;;;;;;;4.63;72.41;99651.66;2043794;79;20313;-72
2022/01/06 14:18:17;;;;;;;4.95;1.26;;;;;;;4.54;72.54;99664.31;2045556;79;20375;-72
2022/01/06 14:21:20;;;;;;;5.65;1.04;;;;;;;4.46;73.48;99660.69;2046611;79;20303;-73
2022/01/06 14:24:22;;;;;;;5.07;0.98;;;;;;;4.40;74.07;99660.53;2045672;79;20359;-74
2022/01/06 14:27:25;;;;;;;4.03;1.21;;;;;;;4.29;74.72;99667.97;2044883;79;20936;-73
2022/01/06 14:30:28;;;;;;;5.01;1.42;;;;;;;4.21;75.64;99661.78;2044102;76;21096;-73
2022/01/06 14:33:37;;;;;;;7.13;1.04;;;;;;;4.11;76.06;99670.94;2046826;79;20444;-76
2022/01/06 14:36:40;;;;;;;4.09;1.26;;;;;;;4.00;76.78;99671.53;2045615;79;20322;-73
2022/01/06 14:39:43;;;;;;;6.57;1.10;;;;;;;3.92;77.42;99671.28;2045505;79;20789;-73
2022/01/06 14:42:46;;;;;;;5.79;0.98;;;;;;;3.84;78.32;99675.38;2044919;79;21205;-73
2022/01/06 14:45:49;;;;;;;3.13;0.95;;;;;;;3.74;79.15;99670.81;2044231;76;20322;-72
2022/01/06 14:48:52;;;;;;;4.65;0.89;;;;;;;3.68;79.85;99673.22;2045936;79;20326;-72
2022/01/06 14:51:55;;;;;;;3.72;0.95;;;;;;;3.57;80.54;99667.78;2045916;79;20378;-71
2022/01/06 14:54:58;;;;;;;4.21;0.89;;;;;;;3.53;81.12;99668.53;2045766;78;20348;-71
2022/01/06 14:58:01;;;;;;;3.54;0.70;;;;;;;3.46;81.47;99676.88;2046221;78;20776;-72